createdAt,value
2023-01-21T00:00:25.107Z,14.65
2023-01-21T00:05:27.488Z,19.77
2023-01-21T00:10:29.395Z,16.98
2023-01-21T00:15:31.428Z,14.20
2023-01-21T00:20:33.577Z,14.50
2023-01-21T00:25:35.375Z,13.75
2023-01-21T00:30:37.316Z,10.18
2023-01-21T00:35:42.207Z,14.55
2023-01-21T00:40:44.288Z,13.00
2023-01-21T00:45:46.073Z,10.45
2023-01-21T00:50:47.841Z,14.27
2023-01-21T00:55:49.660Z,11.98
2023-01-21T01:01:00.000Z,18.08
2023-01-21T01:06:07.758Z,13.48
2023-01-21T01:16:14.642Z,19.95
2023-01-21T01:21:19.466Z,18.17
2023-01-21T01:26:22.327Z,17.45
2023-01-21T01:31:24.241Z,27.33
2023-01-21T01:36:26.221Z,20.10
2023-01-21T01:41:30.134Z,18.20
2023-01-21T01:46:34.997Z,29.15
2023-01-21T01:51:59.563Z,17.15
2023-01-21T01:57:05.529Z,14.00
2023-01-21T02:02:11.650Z,14.88
2023-01-21T02:07:14.169Z,17.42
2023-01-21T02:12:18.226Z,18.20
2023-01-21T02:18:00.143Z,19.35
2023-01-21T02:23:10.721Z,14.48
2023-01-21T02:28:41.950Z,21.20
2023-01-21T02:34:08.430Z,16.20
2023-01-21T02:39:21.982Z,25.63
2023-01-21T02:44:39.276Z,21.13
2023-01-21T02:50:29.122Z,21.23
2023-01-21T02:55:35.840Z,19.98
2023-01-21T03:01:07.894Z,23.45
2023-01-21T03:06:49.017Z,17.25
2023-01-21T03:12:11.758Z,17.20
2023-01-21T03:17:33.380Z,14.10
2023-01-21T03:22:37.780Z,16.20
2023-01-21T03:27:43.704Z,20.75
2023-01-21T03:32:49.762Z,15.90
2023-01-21T03:38:10.108Z,20.23
2023-01-21T03:43:12.013Z,13.52
2023-01-21T03:48:37.710Z,14.23
2023-01-21T03:53:43.265Z,13.73
2023-01-21T03:58:45.148Z,11.50
2023-01-21T04:03:47.039Z,17.60
2023-01-21T04:08:49.510Z,16.95
2023-01-21T04:13:51.367Z,13.13
2023-01-21T04:18:54.085Z,12.93
2023-01-21T04:23:55.845Z,12.98
2023-01-21T04:28:57.721Z,12.80
2023-01-21T04:33:59.538Z,16.13
2023-01-21T04:39:01.563Z,15.82
2023-01-21T04:44:03.422Z,12.93
2023-01-21T04:49:05.392Z,13.15
2023-01-21T04:54:07.189Z,13.93
2023-01-21T04:59:09.002Z,11.73
2023-01-21T05:04:10.805Z,12.55
2023-01-21T05:09:12.626Z,13.35
2023-01-21T05:14:14.447Z,17.15
2023-01-21T05:19:16.509Z,12.90
2023-01-21T05:24:18.858Z,12.68
2023-01-21T05:29:20.712Z,11.27
2023-01-21T05:34:22.526Z,15.50
2023-01-21T05:39:24.520Z,13.85
2023-01-21T05:44:26.390Z,14.18
2023-01-21T05:49:28.445Z,18.45
2023-01-21T05:54:30.524Z,12.98
2023-01-21T05:59:32.388Z,17.23
2023-01-21T06:04:34.232Z,11.80
2023-01-21T06:09:36.055Z,22.30
2023-01-21T06:14:37.820Z,17.55
2023-01-21T06:19:39.653Z,23.45
2023-01-21T06:24:41.724Z,16.48
2023-01-21T06:29:44.108Z,20.65
2023-01-21T06:34:46.760Z,20.00
2023-01-21T06:39:48.575Z,16.30
2023-01-21T06:44:50.298Z,19.55
2023-01-21T06:49:52.089Z,20.30
2023-01-21T06:54:53.932Z,18.52
2023-01-21T06:59:55.879Z,25.48
2023-01-21T07:04:59.161Z,25.58
2023-01-21T07:10:01.217Z,22.70
2023-01-21T07:15:03.111Z,15.85
2023-01-21T07:20:06.016Z,18.25
2023-01-21T07:25:08.767Z,18.42
2023-01-21T07:30:21.020Z,15.55
2023-01-21T07:35:23.000Z,25.10
2023-01-21T07:40:24.919Z,22.85
2023-01-21T07:45:27.039Z,19.95
2023-01-21T07:50:28.976Z,20.00
2023-01-21T07:55:31.304Z,17.95
2023-01-21T08:00:33.183Z,14.18
2023-01-21T08:05:35.087Z,21.15
2023-01-21T08:10:36.969Z,19.17
2023-01-21T08:15:38.791Z,17.35
2023-01-21T08:20:40.685Z,16.88
2023-01-21T08:25:42.470Z,18.30
2023-01-21T08:30:44.932Z,19.70
2023-01-21T08:35:46.818Z,17.95
2023-01-21T08:40:48.545Z,16.27
2023-01-21T08:45:50.535Z,20.30
2023-01-21T08:50:52.649Z,14.00
2023-01-21T08:56:02.192Z,14.48
2023-01-21T09:01:09.018Z,21.13
2023-01-21T09:06:11.400Z,21.27
2023-01-21T09:11:13.410Z,19.58
2023-01-21T09:16:18.367Z,19.27
2023-01-21T09:21:20.184Z,20.05
2023-01-21T09:26:24.089Z,18.33
2023-01-21T09:31:27.855Z,19.67
2023-01-21T09:36:31.982Z,18.20
2023-01-21T09:41:40.829Z,18.25
2023-01-21T09:46:51.433Z,21.65
2023-01-21T09:52:03.181Z,13.38
2023-01-21T09:57:31.939Z,22.27
2023-01-21T10:02:50.055Z,17.02
2023-01-21T10:13:56.890Z,21.63
2023-01-21T10:19:02.174Z,24.25
2023-01-21T10:24:14.437Z,24.40
2023-01-21T10:29:21.596Z,19.05
2023-01-21T10:34:23.497Z,24.25
2023-01-21T10:39:31.519Z,22.23
2023-01-21T10:44:48.429Z,24.88
2023-01-21T10:50:02.309Z,19.75
2023-01-21T10:55:42.696Z,21.95
2023-01-21T11:00:48.772Z,21.27
2023-01-21T11:05:50.969Z,15.93
2023-01-21T11:10:55.424Z,15.90
2023-01-21T11:16:00.187Z,20.42
2023-01-21T11:21:22.005Z,17.67
2023-01-21T11:26:28.719Z,19.45
2023-01-21T11:31:32.334Z,17.88
2023-01-21T11:36:34.562Z,20.33
2023-01-21T11:41:36.621Z,16.05
2023-01-21T11:46:41.718Z,16.10
2023-01-21T11:51:45.826Z,18.08
2023-01-21T11:57:18.861Z,17.23
2023-01-21T12:02:31.374Z,18.42
2023-01-21T12:07:37.873Z,14.57
2023-01-21T12:13:08.294Z,21.77
2023-01-21T12:18:33.147Z,17.65
2023-01-21T12:24:10.141Z,17.35
2023-01-21T12:29:30.865Z,15.10
2023-01-21T12:34:38.812Z,17.63
2023-01-21T12:39:42.835Z,12.40
2023-01-21T12:44:59.880Z,14.52
2023-01-21T12:50:16.617Z,20.08
2023-01-21T12:55:23.877Z,16.65
2023-01-21T13:00:40.187Z,13.23
2023-01-21T13:05:57.026Z,17.15
2023-01-21T13:11:20.403Z,19.25
2023-01-21T13:16:26.510Z,14.05
2023-01-21T13:21:42.074Z,13.88
2023-01-21T13:27:30.765Z,15.25
2023-01-21T13:32:47.270Z,12.07
2023-01-21T13:38:10.547Z,11.77
2023-01-21T13:43:44.234Z,13.25
2023-01-21T13:49:13.251Z,18.23
2023-01-21T13:54:26.783Z,16.67
2023-01-21T13:59:38.757Z,7.68
2023-01-21T14:04:49.602Z,15.65
2023-01-21T14:10:06.926Z,7.65
2023-01-21T14:15:14.541Z,11.80
2023-01-21T14:20:19.429Z,14.80
2023-01-21T14:25:42.216Z,19.85
2023-01-21T14:30:52.209Z,14.38
2023-01-21T14:36:03.740Z,15.70
2023-01-21T14:41:10.710Z,11.23
2023-01-21T14:46:27.757Z,14.40
2023-01-21T14:51:32.001Z,13.55
2023-01-21T14:56:35.416Z,9.55
2023-01-21T15:01:45.086Z,10.55
2023-01-21T15:06:49.204Z,13.05
2023-01-21T15:11:56.629Z,10.05
2023-01-21T15:16:58.641Z,13.93
2023-01-21T15:22:16.338Z,8.40
2023-01-21T15:27:25.919Z,9.82
2023-01-21T15:32:32.991Z,8.13
2023-01-21T15:37:39.835Z,7.87
2023-01-21T15:42:51.348Z,8.23
2023-01-21T15:48:40.949Z,8.13
2023-01-21T15:53:52.184Z,7.55
2023-01-21T15:59:21.930Z,8.68
2023-01-21T16:04:29.618Z,13.90
2023-01-21T16:09:43.575Z,10.13
2023-01-21T16:15:17.832Z,13.65
2023-01-21T16:20:20.309Z,11.82
2023-01-21T16:25:24.530Z,9.23
2023-01-21T16:30:29.133Z,9.00
2023-01-21T16:35:47.311Z,12.27
2023-01-21T16:45:55.425Z,7.63
2023-01-21T16:50:58.210Z,6.80
2023-01-21T16:56:00.206Z,3.17
2023-01-21T17:01:18.266Z,7.07
2023-01-21T17:11:24.775Z,5.78
2023-01-21T17:16:30.527Z,6.75
2023-01-21T17:21:51.231Z,5.47
2023-01-21T17:27:00.706Z,11.95
2023-01-21T17:32:25.814Z,7.85
2023-01-21T17:37:51.341Z,7.18
2023-01-21T17:42:54.142Z,7.65
2023-01-21T17:48:09.483Z,4.28
2023-01-21T17:53:28.663Z,4.82
2023-01-21T18:03:47.923Z,4.43
2023-01-21T18:08:51.037Z,5.03
2023-01-21T18:13:52.890Z,13.73
2023-01-21T18:18:55.158Z,4.95
2023-01-21T18:23:56.990Z,2.80
2023-01-21T18:28:58.939Z,3.50
2023-01-21T18:34:00.937Z,3.45
2023-01-21T18:39:02.791Z,2.28
2023-01-21T18:44:04.923Z,4.15
2023-01-21T18:49:11.583Z,3.85
2023-01-21T18:54:15.421Z,4.15
2023-01-21T18:59:20.209Z,4.78
2023-01-21T19:04:22.287Z,5.88
2023-01-21T19:09:25.207Z,12.70
2023-01-21T19:14:26.942Z,4.70
2023-01-21T19:19:28.872Z,6.00
2023-01-21T19:24:31.043Z,4.80
2023-01-21T19:29:33.265Z,4.72
2023-01-21T19:34:35.130Z,4.28
2023-01-21T19:39:36.928Z,2.08
2023-01-21T19:44:41.721Z,3.25
2023-01-21T19:49:43.808Z,3.38
2023-01-21T19:54:45.715Z,2.90
2023-01-21T19:59:49.616Z,3.45
2023-01-21T20:04:51.439Z,5.22
2023-01-21T20:09:53.310Z,4.55
2023-01-21T20:14:55.255Z,3.90
2023-01-21T20:19:57.136Z,2.92
2023-01-21T20:24:59.039Z,3.67
2023-01-21T20:30:15.744Z,5.25
2023-01-21T20:35:20.686Z,2.90
2023-01-21T20:40:25.581Z,2.78
2023-01-21T20:45:34.465Z,6.18
2023-01-21T20:50:36.345Z,3.47
2023-01-21T20:55:38.669Z,4.45
2023-01-21T21:00:41.179Z,2.85
2023-01-21T21:05:43.228Z,3.78
2023-01-21T21:10:46.005Z,3.90
2023-01-21T21:15:49.648Z,5.50
2023-01-21T21:20:52.113Z,4.43
2023-01-21T21:25:55.443Z,6.25
2023-01-21T21:30:57.382Z,3.15
2023-01-21T21:35:59.146Z,4.60
2023-01-21T21:41:21.012Z,3.95
2023-01-21T21:46:41.332Z,8.32
2023-01-21T21:51:45.823Z,8.75
2023-01-21T21:56:48.243Z,5.65
2023-01-21T22:01:50.066Z,4.60
2023-01-21T22:06:51.915Z,5.13
2023-01-21T22:11:53.875Z,4.70
2023-01-21T22:16:55.731Z,4.45
2023-01-21T22:21:57.534Z,6.20
2023-01-21T22:26:59.350Z,5.40
2023-01-21T22:32:03.905Z,6.25
2023-01-21T22:37:05.770Z,4.50
2023-01-21T22:42:07.612Z,4.05
2023-01-21T22:47:09.508Z,3.17
2023-01-21T22:52:11.372Z,4.28
2023-01-21T22:57:13.406Z,4.88
2023-01-21T23:02:15.300Z,4.18
2023-01-21T23:07:17.479Z,5.15
2023-01-21T23:12:19.233Z,3.88
2023-01-21T23:17:21.036Z,5.32
2023-01-21T23:22:22.805Z,4.22
2023-01-21T23:27:24.643Z,5.22
2023-01-21T23:32:26.441Z,5.07
2023-01-21T23:37:28.385Z,5.22
2023-01-21T23:42:32.113Z,4.78
2023-01-21T23:47:34.099Z,6.25
2023-01-21T23:52:40.263Z,3.58
2023-01-21T23:57:42.256Z,5.82
